KHSB/HSB METAR and TAF weather

Enter ICAO airport designator
Station Type Date Time Source
KHSB METAR 2022/01/18 06:35 UTC NOAA

KHSB 180635Z AUTO 00000KT 10SM SCT100 M05/M07 A3009 RMK AO2 T10541073


Station Type Date Time Source
KHSB Decoded METAR 2022/01/18 06:35 UTC NOAA

Harrisburg, Harrisburg-Raleigh Airport, IL, United States (KHSB) 37-48-41N 088-32-57W
Jan 18, 2022 - 01:35 AM EST / 2022.01.18 0635 UTC
Wind: Calm:0
Visibility: 10 mile(s):0
Sky conditions: partly cloudy
Temperature: 22.3 F (-5.4 C)
Dew Point: 18.9 F (-7.3 C)
Relative Humidity: 86%
Pressure (altimeter): 30.09 in. Hg (1018 hPa)
ob: KHSB 180635Z AUTO 00000KT 10SM SCT100 M05/M07 A3009 RMK AO2 T10541073
cycle: 6

Station Type Date Time Source
KHSB TAF UTC NOAA

Error!

Example: see airport list